ZKLFI NZWN-NZPM
Flight info
| Callsign | ZKLFI |
|---|---|
| Flight time | 0h 23m |
| Altitude | 11000 |
| Route | KAMET H467 BINIT |
| Aircraft | BE20/L-SBGRY/S |
Departure
| Time | 2026-05-05 07:15 |
|---|---|
| Airport | Wellington International Airport (NZWN) |
Arrival
| Time | 2026-05-05 07:39 |
|---|---|
| Airport | Palmerston North Airport (NZPM) |
| Time | Latitude | Longitude | Altitude | Speed | Heading |
|---|---|---|---|---|---|
| 2026-05-05 07:09 | -41.32601 | 174.80478 | 8 ft | 0 kts | 272° |
| 2026-05-05 07:13 | -41.32601 | 174.80477 | 8 ft | 0 kts | 272° |
| 2026-05-05 07:13 | -41.32600 | 174.80471 | 8 ft | 6 kts | 305° |
| 2026-05-05 07:14 | -41.32576 | 174.80520 | 8 ft | 9 kts | 115° |
| 2026-05-05 07:14 | -41.32636 | 174.80519 | 8 ft | 10 kts | 185° |
| 2026-05-05 07:14 | -41.32677 | 174.80566 | 8 ft | 12 kts | 92° |
| 2026-05-05 07:14 | -41.32683 | 174.80686 | 8 ft | 11 kts | 83° |
| 2026-05-05 07:15 | -41.32657 | 174.80692 | 8 ft | 0 kts | 2° |
| 2026-05-05 07:15 | -41.32645 | 174.80693 | 8 ft | 11 kts | 3° |
| 2026-05-05 07:15 | -41.32188 | 174.80725 | 93 ft | 102 kts | 4° |
| 2026-05-05 07:15 | -41.31478 | 174.80752 | 758 ft | 104 kts | 359° |
| 2026-05-05 07:16 | -41.30671 | 174.80770 | 1255 ft | 127 kts | 2° |
| 2026-05-05 07:16 | -41.29750 | 174.80813 | 1877 ft | 133 kts | 3° |
| 2026-05-05 07:16 | -41.28860 | 174.80893 | 2708 ft | 128 kts | 2° |
| 2026-05-05 07:16 | -41.27983 | 174.81128 | 3382 ft | 133 kts | 25° |
| 2026-05-05 07:17 | -41.27284 | 174.81825 | 4291 ft | 123 kts | 37° |
| 2026-05-05 07:17 | -41.26653 | 174.82608 | 5020 ft | 125 kts | 39° |
| 2026-05-05 07:17 | -41.26031 | 174.83422 | 5769 ft | 126 kts | 39° |
| 2026-05-05 07:17 | -41.25352 | 174.84316 | 6248 ft | 149 kts | 41° |
| 2026-05-05 07:18 | -41.24571 | 174.85357 | 6635 ft | 171 kts | 42° |
| 2026-05-05 07:18 | -41.23723 | 174.86504 | 7193 ft | 175 kts | 42° |
| 2026-05-05 07:18 | -41.22866 | 174.87670 | 7819 ft | 177 kts | 43° |
| 2026-05-05 07:18 | -41.22011 | 174.88826 | 8427 ft | 178 kts | 42° |
| 2026-05-05 07:19 | -41.21130 | 174.89995 | 9038 ft | 180 kts | 42° |
| 2026-05-05 07:19 | -41.20242 | 174.91174 | 9647 ft | 181 kts | 42° |
| 2026-05-05 07:19 | -41.19352 | 174.92362 | 10258 ft | 182 kts | 42° |
| 2026-05-05 07:19 | -41.18404 | 174.93482 | 10751 ft | 189 kts | 29° |
| 2026-05-05 07:20 | -41.17126 | 174.94187 | 10900 ft | 208 kts | 15° |
| 2026-05-05 07:20 | -41.15678 | 174.94694 | 10988 ft | 223 kts | 12° |
| 2026-05-05 07:20 | -41.14119 | 174.95183 | 11004 ft | 236 kts | 12° |
| 2026-05-05 07:20 | -41.12500 | 174.95701 | 11005 ft | 241 kts | 13° |
| 2026-05-05 07:21 | -41.10862 | 174.96249 | 11005 ft | 244 kts | 13° |
| 2026-05-05 07:21 | -41.09215 | 174.96820 | 11005 ft | 246 kts | 14° |
| 2026-05-05 07:21 | -41.07562 | 174.97407 | 11005 ft | 247 kts | 14° |
| 2026-05-05 07:21 | -41.05901 | 174.98002 | 11005 ft | 248 kts | 14° |
| 2026-05-05 07:22 | -41.04232 | 174.98602 | 11006 ft | 248 kts | 14° |
| 2026-05-05 07:22 | -41.02562 | 174.99202 | 11007 ft | 249 kts | 14° |
| 2026-05-05 07:22 | -41.00889 | 174.99803 | 11008 ft | 249 kts | 14° |
| 2026-05-05 07:22 | -40.99214 | 175.00404 | 11008 ft | 249 kts | 14° |
| 2026-05-05 07:23 | -40.97539 | 175.01004 | 11009 ft | 249 kts | 14° |
| 2026-05-05 07:23 | -40.95861 | 175.01605 | 11010 ft | 250 kts | 14° |
| 2026-05-05 07:23 | -40.94186 | 175.02205 | 11012 ft | 250 kts | 14° |
| 2026-05-05 07:23 | -40.92508 | 175.02806 | 11013 ft | 250 kts | 14° |
| 2026-05-05 07:24 | -40.90830 | 175.03406 | 11014 ft | 250 kts | 14° |
| 2026-05-05 07:24 | -40.89153 | 175.04005 | 11015 ft | 250 kts | 14° |
| 2026-05-05 07:24 | -40.87476 | 175.04604 | 11017 ft | 250 kts | 14° |
| 2026-05-05 07:24 | -40.85816 | 175.05197 | 11018 ft | 250 kts | 14° |
| 2026-05-05 07:25 | -40.84138 | 175.05796 | 11020 ft | 250 kts | 14° |
| 2026-05-05 07:25 | -40.82460 | 175.06394 | 11021 ft | 250 kts | 14° |
| 2026-05-05 07:25 | -40.80779 | 175.06993 | 11023 ft | 250 kts | 14° |
| 2026-05-05 07:25 | -40.79102 | 175.07591 | 11025 ft | 250 kts | 14° |
| 2026-05-05 07:26 | -40.77423 | 175.08188 | 11026 ft | 250 kts | 14° |
| 2026-05-05 07:26 | -40.75745 | 175.08786 | 11028 ft | 250 kts | 14° |
| 2026-05-05 07:26 | -40.74070 | 175.09381 | 11030 ft | 250 kts | 14° |
| 2026-05-05 07:26 | -40.72959 | 175.09777 | 11031 ft | 250 kts | 14° |
| 2026-05-05 07:27 | -40.70715 | 175.10574 | 11033 ft | 250 kts | 14° |
| 2026-05-05 07:27 | -40.69605 | 175.10969 | 11034 ft | 250 kts | 14° |
| 2026-05-05 07:27 | -40.67928 | 175.11565 | 11036 ft | 250 kts | 14° |
| 2026-05-05 07:27 | -40.66294 | 175.12345 | 11038 ft | 250 kts | 24° |
| 2026-05-05 07:28 | -40.64761 | 175.13434 | 11040 ft | 251 kts | 29° |
| 2026-05-05 07:28 | -40.63274 | 175.14639 | 11041 ft | 251 kts | 31° |
| 2026-05-05 07:28 | -40.61282 | 175.16314 | 10720 ft | 256 kts | 31° |
| 2026-05-05 07:28 | -40.60283 | 175.17157 | 10505 ft | 258 kts | 31° |
| 2026-05-05 07:29 | -40.58759 | 175.18431 | 10166 ft | 260 kts | 31° |
| 2026-05-05 07:29 | -40.57233 | 175.19697 | 9790 ft | 258 kts | 31° |
| 2026-05-05 07:29 | -40.55717 | 175.20943 | 9414 ft | 256 kts | 31° |
| 2026-05-05 07:29 | -40.54214 | 175.22168 | 9039 ft | 254 kts | 31° |
| 2026-05-05 07:30 | -40.52702 | 175.23391 | 8662 ft | 253 kts | 30° |
| 2026-05-05 07:30 | -40.49786 | 175.25858 | 7775 ft | 241 kts | 33° |
| 2026-05-05 07:30 | -40.48455 | 175.27125 | 7298 ft | 237 kts | 35° |
| 2026-05-05 07:31 | -40.47140 | 175.28406 | 6822 ft | 233 kts | 35° |
| 2026-05-05 07:31 | -40.45848 | 175.29675 | 6346 ft | 230 kts | 35° |
| 2026-05-05 07:31 | -40.44573 | 175.30927 | 5857 ft | 224 kts | 34° |
| 2026-05-05 07:31 | -40.43346 | 175.32123 | 5256 ft | 216 kts | 34° |
| 2026-05-05 07:32 | -40.42152 | 175.33274 | 4656 ft | 210 kts | 34° |
| 2026-05-05 07:32 | -40.41000 | 175.34381 | 4246 ft | 205 kts | 34° |
| 2026-05-05 07:32 | -40.39838 | 175.35500 | 3960 ft | 205 kts | 34° |
| 2026-05-05 07:32 | -40.38710 | 175.36589 | 3690 ft | 203 kts | 34° |
| 2026-05-05 07:33 | -40.37560 | 175.37700 | 3410 ft | 202 kts | 34° |
| 2026-05-05 07:33 | -40.36440 | 175.38779 | 3105 ft | 203 kts | 35° |
| 2026-05-05 07:33 | -40.35313 | 175.39864 | 2861 ft | 200 kts | 35° |
| 2026-05-05 07:33 | -40.34183 | 175.40948 | 2686 ft | 200 kts | 34° |
| 2026-05-05 07:34 | -40.33125 | 175.42095 | 2632 ft | 195 kts | 49° |
| 2026-05-05 07:34 | -40.32477 | 175.43624 | 2607 ft | 190 kts | 69° |
| 2026-05-05 07:34 | -40.32158 | 175.45288 | 2568 ft | 186 kts | 80° |
| 2026-05-05 07:34 | -40.32024 | 175.46977 | 2562 ft | 187 kts | 85° |
| 2026-05-05 07:35 | -40.31982 | 175.48682 | 2563 ft | 187 kts | 88° |
| 2026-05-05 07:35 | -40.31978 | 175.50427 | 2427 ft | 198 kts | 90° |
| 2026-05-05 07:35 | -40.31992 | 175.52251 | 2219 ft | 200 kts | 92° |
| 2026-05-05 07:35 | -40.32503 | 175.53894 | 2017 ft | 198 kts | 124° |
| 2026-05-05 07:36 | -40.33255 | 175.55382 | 1913 ft | 189 kts | 122° |
| 2026-05-05 07:36 | -40.33799 | 175.56769 | 1805 ft | 156 kts | 108° |
| 2026-05-05 07:36 | -40.34058 | 175.58132 | 1598 ft | 160 kts | 103° |
| 2026-05-05 07:36 | -40.34273 | 175.59339 | 1599 ft | 159 kts | 98° |
| 2026-05-05 07:37 | -40.34302 | 175.59661 | 1599 ft | 159 kts | 94° |
| 2026-05-05 07:37 | -40.34365 | 175.61097 | 1571 ft | 160 kts | 91° |
| 2026-05-05 07:37 | -40.34422 | 175.62514 | 1392 ft | 144 kts | 93° |
| 2026-05-05 07:37 | -40.34169 | 175.63664 | 1104 ft | 124 kts | 51° |
| 2026-05-05 07:38 | -40.33521 | 175.64358 | 861 ft | 118 kts | 24° |
| 2026-05-05 07:38 | -40.32760 | 175.64585 | 723 ft | 113 kts | 353° |
| 2026-05-05 07:38 | -40.32180 | 175.64110 | 651 ft | 105 kts | 300° |
| 2026-05-05 07:38 | -40.31978 | 175.63185 | 372 ft | 109 kts | 272° |
| 2026-05-05 07:39 | -40.31984 | 175.62282 | 156 ft | 85 kts | 271° |
| 2026-05-05 07:39 | -40.31991 | 175.61903 | 156 ft | 12 kts | 239° |
| 2026-05-05 07:39 | -40.31988 | 175.61940 | 156 ft | 15 kts | 115° |
| 2026-05-05 07:39 | -40.32090 | 175.61955 | 156 ft | 18 kts | 180° |
| 2026-05-05 07:40 | -40.32215 | 175.61956 | 156 ft | 19 kts | 180° |
| 2026-05-05 07:40 | -40.32360 | 175.61952 | 156 ft | 19 kts | 184° |
| 2026-05-05 07:40 | -40.32441 | 175.61951 | 156 ft | 8 kts | 50° |
| 2026-05-05 07:40 | -40.32429 | 175.61951 | 156 ft | 0 kts | 291° |